Time;durP1;ratioP1;P1;durP2;ratioP2;P2;SDS_P1;SDS_P2;PMS_P1;PMS_P2;Temp;Humidity;BMP_temperature;BMP_pressure;BME280_temperature;BME280_humidity;BME280_pressure;Samples;Min_cycle;Max_cycle;Signal;HPM_P1;HPM_P2
2023/03/11 00:02:13;;;;;;;14.80;6.85;;;1.20;99.90;;;;;;5021352;28;20301;-61
2023/03/11 00:04:40;;;;;;;12.85;7.88;;;1.20;99.90;;;;;;5039874;28;20088;-61
2023/03/11 00:07:08;;;;;;;14.95;6.82;;;1.20;99.90;;;;;;5044653;28;20285;-61
2023/03/11 00:09:34;;;;;;;17.30;7.80;;;1.20;99.90;;;;;;5014413;28;20129;-61
2023/03/11 00:12:01;;;;;;;15.82;5.93;;;1.10;99.90;;;;;;5035778;28;20439;-60
2023/03/11 00:14:28;;;;;;;14.18;6.57;;;1.00;99.90;;;;;;5023638;28;20052;-60
2023/03/11 00:16:55;;;;;;;13.68;6.03;;;0.90;99.90;;;;;;5043420;28;20064;-61
2023/03/11 00:19:22;;;;;;;13.93;5.72;;;0.90;99.90;;;;;;5039731;28;20528;-62
2023/03/11 00:21:48;;;;;;;17.83;6.95;;;0.80;99.90;;;;;;5033576;28;20049;-61
2023/03/11 00:24:15;;;;;;;12.65;5.43;;;0.80;99.90;;;;;;5041694;28;20580;-60
2023/03/11 00:26:42;;;;;;;12.98;4.95;;;0.90;99.90;;;;;;5036960;28;20494;-60
2023/03/11 00:29:09;;;;;;;11.05;4.78;;;0.80;99.90;;;;;;5042510;28;20053;-60
2023/03/11 00:31:35;;;;;;;12.75;5.45;;;0.90;99.90;;;;;;5033118;28;20063;-61
2023/03/11 00:34:02;;;;;;;13.93;5.35;;;0.80;99.90;;;;;;5044323;28;20355;-61
2023/03/11 00:36:30;;;;;;;14.48;5.90;;;0.80;99.90;;;;;;5014904;28;20926;-61
2023/03/11 00:38:57;;;;;;;15.13;5.40;;;0.80;99.90;;;;;;5043552;28;20051;-61
2023/03/11 00:41:24;;;;;;;9.82;4.57;;;0.80;99.90;;;;;;5013447;28;20045;-60
2023/03/11 00:43:51;;;;;;;8.63;4.47;;;0.80;99.90;;;;;;5018768;28;20049;-61
2023/03/11 00:46:18;;;;;;;10.57;6.03;;;0.80;99.90;;;;;;5051066;28;20049;-60
2023/03/11 00:48:45;;;;;;;17.65;6.97;;;0.70;99.90;;;;;;5020582;28;20041;-61
2023/03/11 00:51:13;;;;;;;14.30;5.47;;;0.70;99.90;;;;;;5049084;28;20045;-61
2023/03/11 00:53:40;;;;;;;18.80;5.88;;;0.70;99.90;;;;;;5022717;28;20120;-61
2023/03/11 00:56:11;;;;;;;20.75;6.72;;;0.70;99.90;;;;;;5047317;28;20131;-61
2023/03/11 00:58:38;;;;;;;12.50;6.00;;;0.70;99.90;;;;;;5042999;28;20479;-62
2023/03/11 01:01:13;;;;;;;18.55;6.50;;;0.60;99.90;;;;;;5044914;28;20063;-61
2023/03/11 01:03:40;;;;;;;16.50;6.70;;;0.60;99.90;;;;;;5046843;28;20049;-60
2023/03/11 01:06:07;;;;;;;16.38;7.35;;;0.60;99.90;;;;;;5019853;28;20516;-61
2023/03/11 01:08:34;;;;;;;14.45;5.72;;;0.70;99.90;;;;;;5035224;28;20132;-61
2023/03/11 01:11:01;;;;;;;14.85;6.10;;;0.60;99.90;;;;;;5021609;28;20576;-61
2023/03/11 01:13:28;;;;;;;12.32;6.45;;;0.60;99.90;;;;;;5032802;28;20051;-61
2023/03/11 01:15:55;;;;;;;16.67;7.25;;;0.60;99.90;;;;;;5039358;28;20059;-61
2023/03/11 01:18:22;;;;;;;17.35;6.80;;;0.50;99.90;;;;;;5047303;28;20053;-61
2023/03/11 01:20:49;;;;;;;14.75;6.70;;;0.50;99.90;;;;;;5036191;28;20128;-60
2023/03/11 01:23:16;;;;;;;14.63;5.70;;;0.50;99.90;;;;;;5031506;28;20049;-60
2023/03/11 01:25:43;;;;;;;11.52;6.28;;;0.50;99.90;;;;;;5042143;28;20041;-61
2023/03/11 01:28:10;;;;;;;15.27;6.18;;;0.50;99.90;;;;;;5031571;28;20085;-60
2023/03/11 01:30:37;;;;;;;20.88;5.72;;;0.50;99.90;;;;;;5042679;28;20157;-61
2023/03/11 01:33:04;;;;;;;15.95;5.65;;;0.40;99.90;;;;;;5029946;28;20053;-61
2023/03/11 01:35:31;;;;;;;15.23;6.07;;;0.40;99.90;;;;;;5043142;28;20044;-61
2023/03/11 01:37:58;;;;;;;11.68;5.63;;;0.40;99.90;;;;;;5032401;28;20502;-60
2023/03/11 01:40:31;;;;;;;13.63;5.40;;;0.40;99.90;;;;;;5039699;28;20148;-61
2023/03/11 01:42:59;;;;;;;19.55;6.47;;;0.40;99.90;;;;;;5049427;28;20052;-60
2023/03/11 01:45:40;;;;;;;19.55;7.90;;;0.40;99.90;;;;;;5024767;28;20470;-61
2023/03/11 01:48:08;;;;;;;10.35;4.93;;;0.40;99.90;;;;;;5031080;28;20051;-62
2023/03/11 01:50:39;;;;;;;9.50;5.03;;;0.30;99.90;;;;;;5039005;28;20490;-61
2023/03/11 01:53:06;;;;;;;11.05;4.75;;;0.30;99.90;;;;;;5015415;28;20049;-62
2023/03/11 01:55:33;;;;;;;16.02;6.28;;;0.30;99.90;;;;;;5037564;28;20083;-61
2023/03/11 01:58:02;;;;;;;12.73;5.10;;;0.20;99.90;;;;;;5017657;28;20053;-61
2023/03/11 02:00:28;;;;;;;8.20;4.80;;;0.20;99.90;;;;;;5035732;28;20075;-60
2023/03/11 02:02:57;;;;;;;8.90;4.30;;;0.20;99.90;;;;;;5047975;28;20152;-60
2023/03/11 02:05:24;;;;;;;10.23;5.75;;;0.20;99.90;;;;;;5025308;28;20037;-60
2023/03/11 02:07:52;;;;;;;12.15;4.55;;;0.10;99.90;;;;;;5022442;28;20053;-61
2023/03/11 02:10:19;;;;;;;9.77;4.85;;;0.10;99.90;;;;;;5028748;28;20044;-60
2023/03/11 02:12:46;;;;;;;18.48;6.07;;;0.00;99.90;;;;;;5040569;28;20061;-60
2023/03/11 02:15:13;;;;;;;10.98;5.18;;;0.00;99.90;;;;;;5027210;28;20156;-60
2023/03/11 02:17:40;;;;;;;9.10;5.53;;;0.00;99.90;;;;;;4680510;28;10000446;-61
2023/03/11 02:20:51;;;;;;;8.40;4.78;;;0.00;99.90;;;;;;5044965;28;20374;-60
2023/03/11 02:23:18;;;;;;;10.98;5.10;;;-0.10;99.90;;;;;;4972008;28;20084;-62
2023/03/11 02:25:53;;;;;;;12.45;5.47;;;-0.10;99.90;;;;;;5025048;28;20045;-61
2023/03/11 02:28:20;;;;;;;18.25;6.18;;;-0.10;99.90;;;;;;5017178;28;20094;-61
2023/03/11 02:30:46;;;;;;;11.52;5.28;;;-0.10;99.90;;;;;;5033111;28;20040;-61
2023/03/11 02:33:13;;;;;;;11.38;4.85;;;-0.10;99.90;;;;;;5039929;28;20071;-62
2023/03/11 02:35:40;;;;;;;16.70;5.78;;;-0.10;99.90;;;;;;5012936;28;20408;-61
2023/03/11 02:38:07;;;;;;;13.32;5.85;;;-0.20;99.90;;;;;;5041145;28;20049;-59
2023/03/11 02:40:35;;;;;;;11.93;4.75;;;-0.20;99.90;;;;;;5030270;28;20045;-60
2023/03/11 02:43:04;;;;;;;8.77;4.57;;;-0.20;99.90;;;;;;5027165;28;20048;-61
2023/03/11 02:45:31;;;;;;;10.68;5.35;;;-0.10;99.90;;;;;;5030140;28;20052;-60
2023/03/11 02:47:58;;;;;;;11.07;5.10;;;-0.40;99.90;;;;;;5017378;28;20046;-61
2023/03/11 02:50:24;;;;;;;11.60;5.00;;;-0.20;99.90;;;;;;5023426;28;20049;-60
2023/03/11 02:52:51;;;;;;;8.95;4.65;;;-0.20;99.90;;;;;;5022358;28;20049;-60
2023/03/11 02:55:19;;;;;;;15.23;5.57;;;-0.20;99.90;;;;;;5012717;28;20045;-61
2023/03/11 02:57:46;;;;;;;13.82;5.18;;;-0.20;99.90;;;;;;5040605;28;20098;-61
2023/03/11 03:00:15;;;;;;;14.73;5.55;;;-0.20;99.90;;;;;;5032791;28;20059;-61
2023/03/11 03:02:42;;;;;;;16.25;5.25;;;-0.30;99.90;;;;;;5034811;28;20057;-61
2023/03/11 03:05:09;;;;;;;11.27;4.80;;;-0.40;99.90;;;;;;5034357;28;20069;-61
2023/03/11 03:07:36;;;;;;;11.75;5.07;;;-0.40;99.90;;;;;;5040809;28;20100;-61
2023/03/11 03:10:04;;;;;;;10.57;4.85;;;-0.40;99.90;;;;;;5036870;28;20089;-61
2023/03/11 03:12:31;;;;;;;8.48;4.10;;;-0.30;99.90;;;;;;5044249;28;20051;-61
2023/03/11 03:14:57;;;;;;;9.23;3.97;;;-0.30;99.90;;;;;;5036242;28;20135;-61
2023/03/11 03:17:24;;;;;;;8.57;4.45;;;-0.30;99.90;;;;;;5030838;28;20052;-61
2023/03/11 03:19:51;;;;;;;11.70;4.50;;;-0.30;99.90;;;;;;5039617;28;20042;-61
2023/03/11 03:22:18;;;;;;;11.35;5.10;;;-0.30;99.90;;;;;;5030526;28;20124;-61
2023/03/11 03:24:44;;;;;;;11.57;4.35;;;-0.30;99.90;;;;;;5021485;28;20042;-61
2023/03/11 03:27:11;;;;;;;10.18;4.47;;;-0.30;99.90;;;;;;5029808;28;20057;-62
2023/03/11 03:29:38;;;;;;;10.27;4.63;;;-0.30;99.90;;;;;;5040556;28;20049;-60
2023/03/11 03:32:05;;;;;;;12.07;5.93;;;-0.30;99.90;;;;;;5028974;28;20423;-60
2023/03/11 03:34:32;;;;;;;7.45;3.83;;;-0.40;99.90;;;;;;5023166;28;20080;-60
2023/03/11 03:36:58;;;;;;;6.03;3.78;;;-0.40;99.90;;;;;;5028096;28;20710;-62
2023/03/11 03:39:25;;;;;;;8.10;4.57;;;-0.40;99.90;;;;;;5033294;28;20064;-61
2023/03/11 03:41:55;;;;;;;7.53;3.60;;;-0.40;99.90;;;;;;5046422;28;20063;-61
2023/03/11 03:44:22;;;;;;;9.00;4.57;;;-0.40;99.90;;;;;;5040844;28;20048;-61
2023/03/11 03:46:49;;;;;;;10.52;4.90;;;-0.40;99.90;;;;;;5037030;28;20128;-60
2023/03/11 03:49:15;;;;;;;7.10;4.07;;;-0.50;99.90;;;;;;5039732;28;20337;-62
2023/03/11 03:51:42;;;;;;;11.38;5.07;;;-0.50;99.90;;;;;;5042008;28;20045;-61
2023/03/11 03:54:09;;;;;;;8.75;4.10;;;-0.50;99.90;;;;;;5044225;28;20048;-61
2023/03/11 03:56:35;;;;;;;11.43;4.80;;;-0.50;99.90;;;;;;5047881;28;20048;-61
2023/03/11 03:59:02;;;;;;;9.00;3.97;;;-0.50;99.90;;;;;;5026898;28;20091;-61
2023/03/11 04:01:29;;;;;;;9.75;3.60;;;-0.50;99.90;;;;;;5015212;28;20049;-61
2023/03/11 04:03:55;;;;;;;9.20;4.43;;;-0.60;99.90;;;;;;5030130;28;20266;-61
2023/03/11 04:06:24;;;;;;;18.23;4.78;;;-0.60;99.90;;;;;;5037617;28;20073;-62
2023/03/11 04:08:51;;;;;;;7.60;3.88;;;-0.60;99.90;;;;;;5030224;28;20049;-61
2023/03/11 04:11:18;;;;;;;9.73;3.53;;;-0.60;99.90;;;;;;5039569;28;20096;-61
2023/03/11 04:13:45;;;;;;;8.70;4.53;;;-0.60;99.90;;;;;;5031463;28;20502;-61
2023/03/11 04:16:16;;;;;;;12.38;4.25;;;-0.60;99.90;;;;;;5027486;28;20094;-61
2023/03/11 04:18:43;;;;;;;12.52;4.75;;;-0.70;99.90;;;;;;5034150;28;20059;-61
2023/03/11 04:21:10;;;;;;;13.07;3.92;;;-0.70;99.90;;;;;;5045611;28;20147;-61
2023/03/11 04:23:37;;;;;;;13.38;5.18;;;-0.70;99.90;;;;;;5033428;28;20053;-61
2023/03/11 04:26:04;;;;;;;10.90;5.38;;;-0.70;99.90;;;;;;5045779;28;20053;-61
2023/03/11 04:28:30;;;;;;;10.43;4.05;;;-0.70;99.90;;;;;;5034687;28;20057;-60
2023/03/11 04:30:57;;;;;;;10.40;4.80;;;-0.70;99.90;;;;;;5042278;28;20045;-60
2023/03/11 04:33:24;;;;;;;9.50;4.70;;;-0.80;99.90;;;;;;5016571;28;20061;-59
2023/03/11 04:35:50;;;;;;;13.65;3.80;;;-0.80;99.90;;;;;;5038686;28;20049;-60
2023/03/11 04:38:17;;;;;;;13.75;4.32;;;-0.80;99.90;;;;;;5036955;28;20081;-60
2023/03/11 04:40:44;;;;;;;15.18;4.68;;;-0.70;99.90;;;;;;5019015;28;20146;-59
2023/03/11 04:43:11;;;;;;;9.77;4.18;;;-0.70;99.90;;;;;;5038779;28;20136;-63
2023/03/11 04:45:43;;;;;;;14.23;4.75;;;-0.60;99.90;;;;;;5034564;28;20132;-60
2023/03/11 04:48:10;;;;;;;12.18;4.55;;;-0.60;99.90;;;;;;5039881;28;20053;-60
2023/03/11 04:50:36;;;;;;;7.90;4.20;;;-0.50;99.90;;;;;;5033023;28;20053;-61
2023/03/11 04:53:03;;;;;;;7.28;3.50;;;-0.50;99.90;;;;;;5047564;28;20437;-61
2023/03/11 04:55:30;;;;;;;6.13;3.50;;;-0.50;99.90;;;;;;5040140;28;20071;-60
2023/03/11 04:57:56;;;;;;;8.82;4.53;;;-0.40;99.90;;;;;;5032387;28;20104;-60
2023/03/11 05:00:23;;;;;;;7.07;3.80;;;-0.40;99.90;;;;;;5033041;28;20049;-61
2023/03/11 05:02:50;;;;;;;9.73;3.53;;;-0.40;99.90;;;;;;5035790;28;20051;-61
2023/03/11 05:05:20;;;;;;;6.80;3.75;;;-0.30;99.90;;;;;;5032819;28;20049;-61
2023/03/11 05:07:47;;;;;;;9.55;3.85;;;-0.30;99.90;;;;;;5042896;28;20041;-61
2023/03/11 05:10:13;;;;;;;13.63;4.03;;;-0.20;99.90;;;;;;5036400;28;20053;-61
2023/03/11 05:12:40;;;;;;;12.10;3.85;;;-0.20;99.90;;;;;;5009135;28;20041;-61
2023/03/11 05:15:07;;;;;;;14.25;3.72;;;-0.20;99.90;;;;;;5030589;28;20088;-60
2023/03/11 05:17:34;;;;;;;6.85;3.65;;;-0.20;99.90;;;;;;5040526;28;20049;-61
2023/03/11 05:20:00;;;;;;;12.85;3.92;;;-0.20;99.90;;;;;;5015251;28;20317;-61
2023/03/11 05:22:27;;;;;;;7.45;3.63;;;-0.20;99.90;;;;;;5038199;28;20045;-61
2023/03/11 05:24:54;;;;;;;11.50;4.28;;;-0.20;99.90;;;;;;5034310;28;20168;-61
2023/03/11 05:27:21;;;;;;;3.72;2.55;;;-0.10;99.90;;;;;;5035925;28;20052;-61
2023/03/11 05:29:48;;;;;;;7.32;3.92;;;-0.10;99.90;;;;;;5037639;28;20488;-61
2023/03/11 05:32:14;;;;;;;8.27;3.00;;;-0.10;99.90;;;;;;5016080;28;20041;-62
2023/03/11 05:34:41;;;;;;;12.90;3.95;;;-0.20;99.90;;;;;;5039627;28;20049;-61
2023/03/11 05:37:08;;;;;;;8.60;2.85;;;-0.10;99.90;;;;;;5032291;28;20127;-61
2023/03/11 05:39:36;;;;;;;7.05;2.55;;;-0.10;99.90;;;;;;5041378;28;20050;-61
2023/03/11 05:42:04;;;;;;;6.85;2.83;;;-0.10;99.90;;;;;;5032853;28;20119;-61
2023/03/11 05:44:30;;;;;;;5.57;2.78;;;-0.10;99.90;;;;;;5029048;28;20055;-61
2023/03/11 05:46:57;;;;;;;5.57;2.92;;;-0.10;99.90;;;;;;5048239;28;20046;-61
2023/03/11 05:49:24;;;;;;;4.72;3.00;;;-0.10;99.90;;;;;;5037373;28;20048;-61
2023/03/11 05:51:53;;;;;;;5.80;2.45;;;0.00;99.90;;;;;;5048439;28;20060;-60
2023/03/11 05:54:22;;;;;;;10.55;3.50;;;-0.10;99.90;;;;;;5036731;28;20059;-59
2023/03/11 05:56:51;;;;;;;9.93;3.10;;;0.00;99.90;;;;;;5029973;28;20050;-60
2023/03/11 05:59:18;;;;;;;6.63;3.42;;;0.00;99.90;;;;;;5035880;28;20049;-60
2023/03/11 06:01:45;;;;;;;9.50;2.75;;;0.10;99.90;;;;;;5029679;28;20067;-60
2023/03/11 06:04:12;;;;;;;4.93;2.67;;;0.10;99.90;;;;;;5022809;28;20495;-61
2023/03/11 06:06:42;;;;;;;7.32;3.05;;;0.10;99.90;;;;;;5031638;28;20144;-61
2023/03/11 06:09:11;;;;;;;7.03;2.90;;;0.10;99.90;;;;;;5038438;28;20103;-60
2023/03/11 06:11:38;;;;;;;4.68;2.72;;;0.20;99.90;;;;;;5020012;28;20041;-60
2023/03/11 06:14:04;;;;;;;8.88;3.20;;;0.20;99.90;;;;;;5041598;28;20057;-60
2023/03/11 06:16:31;;;;;;;8.25;3.00;;;0.20;99.90;;;;;;5035160;28;20520;-60
2023/03/11 06:19:01;;;;;;;5.35;3.17;;;0.10;99.90;;;;;;5033766;28;20055;-60
2023/03/11 06:21:28;;;;;;;5.85;2.47;;;0.20;99.90;;;;;;5037018;28;20057;-62
2023/03/11 06:23:55;;;;;;;7.35;2.17;;;0.20;99.90;;;;;;5031853;28;20050;-61
2023/03/11 06:26:22;;;;;;;6.53;2.83;;;0.30;99.90;;;;;;5039233;28;20049;-61
2023/03/11 06:28:49;;;;;;;4.18;2.10;;;0.30;99.90;;;;;;5027950;28;20050;-60
2023/03/11 06:31:21;;;;;;;5.18;2.33;;;0.30;99.90;;;;;;5037852;28;20071;-60
2023/03/11 06:33:48;;;;;;;6.95;2.38;;;0.40;99.90;;;;;;5045931;28;20041;-60
2023/03/11 06:36:15;;;;;;;4.15;1.90;;;0.40;99.90;;;;;;5037638;28;20052;-60
2023/03/11 06:38:42;;;;;;;5.32;1.85;;;0.40;99.90;;;;;;5047087;28;20881;-61
2023/03/11 06:41:09;;;;;;;10.95;2.15;;;0.50;99.90;;;;;;5042798;28;20048;-60
2023/03/11 06:43:36;;;;;;;8.63;3.22;;;0.60;99.90;;;;;;5047175;28;20052;-60
2023/03/11 06:46:14;;;;;;;5.20;2.45;;;0.50;99.90;;;;;;5040930;28;20578;-61
2023/03/11 06:48:41;;;;;;;6.90;1.88;;;0.50;99.90;;;;;;5012496;28;20072;-61
2023/03/11 06:51:08;;;;;;;8.40;2.42;;;0.60;99.90;;;;;;5040671;28;20148;-61
2023/03/11 06:53:35;;;;;;;9.13;4.35;;;0.60;99.90;;;;;;5029073;28;20447;-61
2023/03/11 06:56:10;;;;;;;7.90;2.22;;;0.60;99.90;;;;;;5040954;28;20041;-60
2023/03/11 06:58:37;;;;;;;6.07;2.60;;;0.50;99.90;;;;;;5028189;28;20050;-61
2023/03/11 07:01:10;;;;;;;4.20;1.92;;;0.50;99.90;;;;;;5032687;28;20147;-61
2023/03/11 07:03:37;;;;;;;8.13;3.30;;;0.50;99.90;;;;;;5046498;28;20103;-61
2023/03/11 07:06:04;;;;;;;5.43;2.03;;;0.50;99.90;;;;;;5038183;28;20060;-61
2023/03/11 07:08:32;;;;;;;4.82;2.15;;;0.60;99.90;;;;;;5044663;28;20059;-60
2023/03/11 07:11:04;;;;;;;5.35;2.33;;;0.70;99.90;;;;;;5040167;28;20504;-60
2023/03/11 07:13:30;;;;;;;6.15;2.40;;;0.70;99.90;;;;;;5042817;28;20072;-60
2023/03/11 07:16:05;;;;;;;6.97;2.00;;;0.80;99.90;;;;;;5042156;28;20045;-62
2023/03/11 07:18:33;;;;;;;6.63;2.55;;;0.80;99.90;;;;;;5017124;28;20049;-63
2023/03/11 07:21:04;;;;;;;7.82;2.70;;;0.90;99.90;;;;;;4685790;28;10000657;-62
2023/03/11 07:23:30;;;;;;;4.63;2.10;;;0.90;99.90;;;;;;5036517;28;20059;-60
2023/03/11 07:25:57;;;;;;;7.95;2.08;;;0.90;99.90;;;;;;5041184;28;20128;-60
2023/03/11 07:28:24;;;;;;;5.80;2.05;;;1.00;99.90;;;;;;5016582;28;20041;-60
2023/03/11 07:30:51;;;;;;;6.22;1.70;;;1.10;99.90;;;;;;5038299;28;20059;-61
2023/03/11 07:33:19;;;;;;;4.38;2.33;;;1.10;99.90;;;;;;5035396;28;20133;-60
2023/03/11 07:35:48;;;;;;;11.77;1.77;;;1.20;99.90;;;;;;5032984;28;20507;-59
2023/03/11 07:38:16;;;;;;;12.05;1.90;;;1.20;99.90;;;;;;5035610;28;20049;-61
2023/03/11 07:40:43;;;;;;;6.85;2.38;;;1.20;99.90;;;;;;5025616;28;20147;-61
2023/03/11 07:43:10;;;;;;;12.32;2.47;;;1.20;99.90;;;;;;5039817;28;20061;-61
2023/03/11 07:45:37;;;;;;;4.78;2.10;;;1.30;99.90;;;;;;5042035;28;20049;-60
2023/03/11 07:48:04;;;;;;;9.43;2.35;;;1.40;99.90;;;;;;5039805;28;20049;-61
2023/03/11 07:50:30;;;;;;;9.60;1.80;;;1.40;99.90;;;;;;5027414;28;20479;-60
2023/03/11 07:52:57;;;;;;;6.57;2.55;;;1.40;99.90;;;;;;5040800;28;20051;-61
2023/03/11 07:55:24;;;;;;;8.00;2.60;;;1.50;99.90;;;;;;5029100;28;20054;-60
2023/03/11 07:57:51;;;;;;;4.40;2.15;;;1.60;99.90;;;;;;5038666;28;20095;-60
2023/03/11 08:00:18;;;;;;;4.15;1.75;;;1.60;99.90;;;;;;5031279;28;20055;-60
2023/03/11 08:02:45;;;;;;;4.97;2.55;;;1.70;99.90;;;;;;5014709;28;20049;-59
2023/03/11 08:05:12;;;;;;;8.35;2.13;;;1.70;99.90;;;;;;5040523;28;20757;-60
2023/03/11 08:07:38;;;;;;;11.82;2.45;;;1.70;99.90;;;;;;5033332;28;20128;-61
2023/03/11 08:10:06;;;;;;;7.95;2.00;;;1.70;99.90;;;;;;5018147;28;20053;-61
2023/03/11 08:12:32;;;;;;;5.30;2.47;;;1.80;99.90;;;;;;5031220;28;20132;-61
2023/03/11 08:14:59;;;;;;;5.85;2.05;;;1.80;99.90;;;;;;5037940;28;20485;-61
2023/03/11 08:17:26;;;;;;;3.75;1.80;;;1.80;99.90;;;;;;5013137;28;20111;-60
2023/03/11 08:19:52;;;;;;;6.03;1.80;;;1.90;99.90;;;;;;5040279;28;20328;-60
2023/03/11 08:22:19;;;;;;;21.27;3.17;;;2.00;99.90;;;;;;5044682;28;20049;-61
2023/03/11 08:24:50;;;;;;;8.35;1.80;;;2.10;99.90;;;;;;5035722;28;20049;-61
2023/03/11 08:27:17;;;;;;;5.15;1.92;;;2.20;99.90;;;;;;5029213;28;20077;-60
2023/03/11 08:29:44;;;;;;;7.82;2.92;;;2.30;99.90;;;;;;5040334;28;20068;-59
2023/03/11 08:32:10;;;;;;;9.80;1.90;;;2.40;99.90;;;;;;5025324;28;20526;-61
2023/03/11 08:34:38;;;;;;;13.05;2.22;;;2.40;99.90;;;;;;5034568;28;20529;-61
2023/03/11 08:37:05;;;;;;;7.00;2.75;;;2.50;99.90;;;;;;5047829;28;20124;-61
2023/03/11 08:39:32;;;;;;;7.68;1.95;;;2.60;99.90;;;;;;5036987;28;20088;-60
2023/03/11 08:41:59;;;;;;;7.55;2.40;;;2.70;99.90;;;;;;5047289;28;20053;-59
2023/03/11 08:44:25;;;;;;;7.22;1.80;;;2.80;99.90;;;;;;5018786;28;20107;-61
2023/03/11 08:46:53;;;;;;;6.78;2.53;;;2.80;99.90;;;;;;5044453;28;20158;-61
2023/03/11 08:49:19;;;;;;;2.75;1.85;;;2.90;99.90;;;;;;5038401;28;20053;-62
2023/03/11 08:51:46;;;;;;;8.40;1.63;;;2.90;99.90;;;;;;5028264;28;20096;-60
2023/03/11 08:54:13;;;;;;;9.93;2.17;;;3.00;99.90;;;;;;5032505;28;20075;-58
2023/03/11 08:56:40;;;;;;;8.10;1.90;;;3.00;99.90;;;;;;5034789;28;20053;-61
2023/03/11 08:59:07;;;;;;;9.23;2.10;;;3.10;99.90;;;;;;5029863;28;20392;-61
2023/03/11 09:01:34;;;;;;;6.30;2.30;;;3.10;99.90;;;;;;5036227;28;20089;-61
2023/03/11 09:04:01;;;;;;;5.40;2.00;;;3.20;99.90;;;;;;5030603;28;20083;-61
2023/03/11 09:06:29;;;;;;;10.25;2.45;;;3.30;99.90;;;;;;5036816;28;20555;-61
2023/03/11 09:08:56;;;;;;;13.75;2.40;;;3.40;99.90;;;;;;5030352;28;20053;-59
2023/03/11 09:11:23;;;;;;;10.70;2.22;;;3.60;99.90;;;;;;5046044;28;20045;-61
2023/03/11 09:13:49;;;;;;;5.38;1.65;;;3.60;99.90;;;;;;5047124;28;20045;-59
2023/03/11 09:16:18;;;;;;;8.70;1.85;;;3.70;99.90;;;;;;5041814;28;20049;-59
2023/03/11 09:18:45;;;;;;;5.78;1.80;;;3.80;99.90;;;;;;5028315;28;20492;-59
2023/03/11 09:21:12;;;;;;;16.00;1.98;;;4.00;99.90;;;;;;5038648;28;20132;-60
2023/03/11 09:23:39;;;;;;;5.00;1.55;;;4.10;99.90;;;;;;5046914;28;20800;-60
2023/03/11 09:26:09;;;;;;;11.95;1.83;;;4.20;99.90;;;;;;5033116;28;20145;-60
2023/03/11 09:28:36;;;;;;;7.53;2.17;;;4.30;99.90;;;;;;5008280;28;20045;-59
2023/03/11 09:31:03;;;;;;;10.77;1.38;;;4.40;99.90;;;;;;5032068;28;20571;-61
2023/03/11 09:33:29;;;;;;;14.75;3.20;;;4.50;99.90;;;;;;5041948;28;20045;-59
2023/03/11 09:35:57;;;;;;;10.30;1.83;;;4.60;99.90;;;;;;5036298;28;20547;-60
2023/03/11 09:38:24;;;;;;;20.70;3.80;;;4.80;99.90;;;;;;5030238;28;20053;-60
2023/03/11 09:41:14;;;;;;;11.18;1.40;;;4.80;99.90;;;;;;5031953;28;20533;-60
2023/03/11 09:43:59;;;;;;;7.55;1.55;;;4.80;99.90;;;;;;5013391;28;20057;-59
2023/03/11 09:46:32;;;;;;;8.60;1.60;;;4.90;99.90;;;;;;5039196;28;20396;-61
2023/03/11 09:49:17;;;;;;;6.35;1.55;;;5.00;99.90;;;;;;5011613;28;20315;-59
2023/03/11 09:52:02;;;;;;;8.23;1.23;;;5.10;99.90;;;;;;5036968;28;20045;-61
2023/03/11 09:54:29;;;;;;;9.23;1.60;;;5.20;99.90;;;;;;5009385;28;20061;-58
2023/03/11 09:56:56;;;;;;;11.30;1.20;;;5.30;99.90;;;;;;5019351;28;20147;-61
2023/03/11 09:59:28;;;;;;;8.32;1.92;;;5.40;99.90;;;;;;5011169;28;20197;-60
2023/03/11 10:01:55;;;;;;;7.47;1.27;;;5.40;99.90;;;;;;5020019;28;20069;-62
2023/03/11 10:04:43;;;;;;;9.18;1.23;;;5.50;99.90;;;;;;5012449;28;20144;-60
2023/03/11 10:07:20;;;;;;;9.90;1.40;;;5.50;99.90;;;;;;5038027;28;20240;-59
2023/03/11 10:09:51;;;;;;;4.82;1.00;;;5.70;99.90;;;;;;5010363;28;20076;-60
2023/03/11 10:12:20;;;;;;;6.20;1.17;;;5.60;99.90;;;;;;5017597;28;20774;-60
2023/03/11 10:15:04;;;;;;;6.28;1.00;;;5.60;99.90;;;;;;5030799;28;20063;-60
2023/03/11 10:17:43;;;;;;;;;;;5.60;99.90;;;;;;5034702;28;20443;-59
2023/03/11 10:20:11;;;;;;;3.30;1.35;;;5.70;99.90;;;;;;5043618;28;19920;-61
2023/03/11 10:23:16;;;;;;;4.40;1.80;;;5.70;99.90;;;;;;5020301;28;20103;-60
2023/03/11 10:26:08;;;;;;;3.03;1.17;;;6.10;99.90;;;;;;5025679;28;20140;-60
2023/03/11 10:28:36;;;;;;;20.90;1.90;;;5.90;99.90;;;;;;5020921;28;20052;-63
2023/03/11 10:31:19;;;;;;;6.68;1.27;;;6.00;99.90;;;;;;5008206;28;20073;-60
2023/03/11 10:33:51;;;;;;;6.07;1.92;;;6.00;99.90;;;;;;5019852;28;20125;-60
2023/03/11 10:36:23;;;;;;;4.45;1.05;;;6.10;99.90;;;;;;5025926;28;20065;-60
2023/03/11 10:38:51;;;;;;;14.45;2.35;;;6.00;99.90;;;;;;5021757;28;20051;-60
2023/03/11 10:41:20;;;;;;;5.47;1.40;;;6.10;99.90;;;;;;5008327;28;20063;-60
2023/03/11 10:43:51;;;;;;;6.68;1.02;;;6.20;99.90;;;;;;5014764;28;20053;-60
2023/03/11 10:46:26;;;;;;;4.50;1.05;;;6.20;99.90;;;;;;4992923;28;20053;-60
2023/03/11 10:48:52;;;;;;;13.75;1.63;;;6.20;99.90;;;;;;5019665;28;20159;-61
2023/03/11 10:51:32;;;;;;;6.82;1.63;;;6.20;99.90;;;;;;5024396;28;20057;-61
2023/03/11 10:53:59;;;;;;;11.70;1.63;;;6.20;99.90;;;;;;5019341;28;20076;-61
2023/03/11 10:56:34;;;;;;;9.95;1.38;;;6.30;99.90;;;;;;5024427;28;20059;-60
2023/03/11 10:59:02;;;;;;;11.30;1.73;;;6.30;99.90;;;;;;5017464;28;20057;-60
2023/03/11 11:01:29;;;;;;;18.85;1.52;;;6.30;99.90;;;;;;5024628;28;20476;-60
2023/03/11 11:03:56;;;;;;;5.85;1.35;;;6.40;99.90;;;;;;5033401;28;20530;-61
2023/03/11 11:06:27;;;;;;;5.38;1.10;;;6.40;99.90;;;;;;4995829;28;20773;-60
2023/03/11 11:09:23;;;;;;;7.70;1.10;;;6.50;99.90;;;;;;5014243;28;20044;-60
2023/03/11 11:12:09;;;;;;;5.75;1.10;;;6.40;99.90;;;;;;5012785;28;20093;-61
2023/03/11 11:14:46;;;;;;;9.32;1.30;;;6.50;99.90;;;;;;5036201;28;20213;-60
2023/03/11 11:17:24;;;;;;;10.40;1.48;;;6.60;99.90;;;;;;5007667;28;20053;-60
2023/03/11 11:19:50;;;;;;;7.88;1.65;;;6.60;99.90;;;;;;5019036;28;20055;-59
2023/03/11 11:22:19;;;;;;;5.13;1.20;;;6.60;99.90;;;;;;5047024;28;20488;-61
2023/03/11 11:24:46;;;;;;;7.65;1.58;;;6.60;99.90;;;;;;5002675;28;20049;-60
2023/03/11 11:27:16;;;;;;;7.72;1.60;;;6.60;99.90;;;;;;5027383;28;20381;-58
2023/03/11 11:29:42;;;;;;;10.77;1.60;;;6.70;99.90;;;;;;5038876;28;20099;-60
2023/03/11 11:32:18;;;;;;;5.43;1.80;;;6.70;99.90;;;;;;5024953;28;20045;-59
2023/03/11 11:34:58;;;;;;;6.75;1.80;;;6.70;99.90;;;;;;5022518;28;20081;-59
2023/03/11 11:37:30;;;;;;;7.70;1.40;;;6.70;99.90;;;;;;5043912;28;20057;-59
2023/03/11 11:40:08;;;;;;;4.72;1.50;;;6.70;99.90;;;;;;5039642;28;20077;-60
2023/03/11 11:42:38;;;;;;;7.60;1.65;;;6.70;99.90;;;;;;5044086;28;20080;-62
2023/03/11 11:45:16;;;;;;;13.43;2.13;;;6.70;99.90;;;;;;5039355;28;20526;-60
2023/03/11 11:47:46;;;;;;;14.18;1.67;;;6.70;99.90;;;;;;5025637;28;20049;-61
2023/03/11 11:50:31;;;;;;;13.30;1.35;;;6.70;99.90;;;;;;5022383;28;20137;-61
2023/03/11 11:53:11;;;;;;;6.20;2.10;;;6.70;99.90;;;;;;5026765;28;20048;-71
2023/03/11 11:55:41;;;;;;;4.72;1.60;;;6.70;99.90;;;;;;5020291;28;20045;-60
2023/03/11 11:58:13;;;;;;;3.25;1.02;;;6.80;99.90;;;;;;5025987;28;20056;-60
2023/03/11 12:00:48;;;;;;;10.55;1.35;;;6.90;99.90;;;;;;5039517;28;20046;-61
2023/03/11 12:03:37;;;;;;;8.52;1.38;;;6.90;99.90;;;;;;5021411;28;20057;-60
2023/03/11 12:06:30;;;;;;;3.63;0.82;;;6.90;99.90;;;;;;5034208;28;20164;-60
2023/03/11 12:08:59;;;;;;;1.95;1.00;;;7.00;99.90;;;;;;5029889;28;20056;-60
2023/03/11 12:11:33;;;;;;;7.38;1.50;;;7.10;99.90;;;;;;5032241;28;20104;-60
2023/03/11 12:14:18;;;;;;;24.08;1.52;;;7.10;99.90;;;;;;5025256;28;20045;-60
2023/03/11 12:16:47;;;;;;;2.55;0.88;;;7.20;99.90;;;;;;5039598;28;20049;-59
2023/03/11 12:19:16;;;;;;;13.20;1.00;;;7.20;99.90;;;;;;5007703;28;20518;-60
2023/03/11 12:21:52;;;;;;;7.75;1.38;;;7.20;99.90;;;;;;4683946;28;9999814;-58
2023/03/11 12:24:21;;;;;;;3.03;1.00;;;7.20;99.90;;;;;;5042495;28;20140;-60
2023/03/11 12:26:48;;;;;;;12.95;1.27;;;7.30;99.90;;;;;;5033443;28;20508;-58
2023/03/11 12:29:28;;;;;;;26.55;2.08;;;7.30;99.90;;;;;;5041119;28;20470;-58
2023/03/11 12:31:55;;;;;;;7.38;1.70;;;7.40;99.90;;;;;;5033966;28;20428;-59
2023/03/11 12:34:21;;;;;;;5.93;1.25;;;7.40;99.90;;;;;;5023815;28;20049;-60
2023/03/11 12:36:48;;;;;;;3.08;1.23;;;7.60;99.90;;;;;;5022382;28;20046;-61
2023/03/11 12:39:30;;;;;;;20.75;2.25;;;7.60;99.90;;;;;;5041207;28;20392;-61
2023/03/11 12:42:09;;;;;;;13.75;1.63;;;7.60;99.90;;;;;;5022890;28;20141;-60
2023/03/11 12:44:37;;;;;;;11.27;2.40;;;7.70;99.90;;;;;;5042829;28;20041;-60
2023/03/11 12:47:06;;;;;;;9.13;1.60;;;7.90;99.90;;;;;;5006511;28;20057;-61
2023/03/11 12:49:34;;;;;;;7.68;1.35;;;8.00;99.90;;;;;;5030591;28;20056;-61
2023/03/11 12:52:05;;;;;;;5.13;1.73;;;8.20;99.90;;;;;;5031973;28;20049;-61
2023/03/11 12:54:33;;;;;;;12.05;2.72;;;8.10;99.90;;;;;;5035723;28;20058;-61
2023/03/11 12:57:14;;;;;;;10.27;1.63;;;8.20;99.90;;;;;;5030512;28;20060;-61
2023/03/11 12:59:44;;;;;;;8.20;2.25;;;8.20;99.90;;;;;;5035510;28;20052;-59
2023/03/11 13:02:43;;;;;;;2.88;0.98;;;8.30;99.90;;;;;;5010788;28;20079;-59